createdAt,value
2023-05-10T00:01:18.049Z,4.0
2023-05-10T00:08:50.501Z,4.0
2023-05-10T00:16:22.978Z,4.0
2023-05-10T00:23:55.450Z,3.9
2023-05-10T00:31:27.956Z,3.9
2023-05-10T00:39:00.405Z,3.9
2023-05-10T00:46:32.854Z,3.9
2023-05-10T00:54:05.257Z,3.9
2023-05-10T01:01:37.775Z,3.9
2023-05-10T01:09:10.298Z,3.9
2023-05-10T01:16:42.715Z,3.9
2023-05-10T01:24:15.164Z,4.0
2023-05-10T01:31:47.673Z,4.0
2023-05-10T01:39:20.123Z,4.0
2023-05-10T01:46:52.629Z,4.0
2023-05-10T01:54:25.103Z,4.0
2023-05-10T02:01:57.534Z,4.0
2023-05-10T02:09:29.967Z,4.0
2023-05-10T02:17:02.490Z,4.0
2023-05-10T02:24:34.983Z,3.7
2023-05-10T02:32:07.491Z,3.7
2023-05-10T02:39:40.013Z,3.7
2023-05-10T02:47:12.422Z,3.7
2023-05-10T02:54:44.846Z,3.7
2023-05-10T03:02:17.265Z,3.7
2023-05-10T03:09:49.672Z,3.7
2023-05-10T03:17:22.161Z,3.7
2023-05-10T03:24:54.588Z,3.6
2023-05-10T03:32:27.049Z,3.6
2023-05-10T03:39:59.492Z,3.6
2023-05-10T03:47:31.929Z,3.6
2023-05-10T03:55:04.363Z,3.6
2023-05-10T03:58:24.147Z,3.6
2023-05-10T03:59:11.559Z,3.6
2023-05-10T03:59:58.964Z,3.6
2023-05-10T04:00:46.399Z,3.6
2023-05-10T04:01:33.839Z,3.6
2023-05-10T04:02:21.324Z,3.6
2023-05-10T04:03:08.849Z,3.6
2023-05-10T04:03:56.365Z,3.6
2023-05-10T04:11:28.844Z,3.6
2023-05-10T04:19:01.343Z,4.0
2023-05-10T04:20:41.318Z,4.0
2023-05-10T04:21:28.729Z,4.0
2023-05-10T04:22:16.132Z,4.0
2023-05-10T04:23:03.568Z,4.0
2023-05-10T04:23:50.999Z,4.0
2023-05-10T04:24:38.399Z,4.0
2023-05-10T04:25:25.829Z,4.0
2023-05-10T04:26:13.239Z,4.0
2023-05-10T04:27:00.639Z,4.0
2023-05-10T04:27:48.173Z,4.0
2023-05-10T04:28:35.607Z,4.0
2023-05-10T04:29:23.029Z,4.0
2023-05-10T04:30:10.457Z,4.0
2023-05-10T04:30:57.889Z,4.0
2023-05-10T04:31:45.328Z,4.0
2023-05-10T04:32:32.792Z,4.0
2023-05-10T04:33:20.247Z,4.0
2023-05-10T04:34:07.681Z,4.0
2023-05-10T04:34:55.088Z,4.0
2023-05-10T04:35:42.514Z,4.0
2023-05-10T04:36:29.938Z,4.0
2023-05-10T04:37:17.388Z,4.0
2023-05-10T04:38:04.809Z,4.0
2023-05-10T04:38:52.202Z,4.0
2023-05-10T04:39:42.058Z,4.0
2023-05-10T04:40:29.771Z,4.0
2023-05-10T04:41:17.193Z,4.0
2023-05-10T04:42:04.882Z,4.0
2023-05-10T04:42:52.284Z,4.0
2023-05-10T04:43:39.754Z,4.0
2023-05-10T04:44:27.343Z,4.0
2023-05-10T04:45:14.810Z,4.0
2023-05-10T04:46:02.385Z,4.0
2023-05-10T04:46:50.036Z,4.0
2023-05-10T04:47:37.526Z,4.0
2023-05-10T04:48:24.977Z,4.0
2023-05-10T04:49:12.401Z,4.0
2023-05-10T04:49:59.786Z,4.0
2023-05-10T04:50:47.189Z,4.0
2023-05-10T04:51:34.606Z,4.0
2023-05-10T04:52:22.028Z,4.0
2023-05-10T04:53:09.718Z,4.0
2023-05-10T04:54:06.019Z,4.0
2023-05-10T04:54:54.110Z,4.0
2023-05-10T04:55:41.517Z,4.0
2023-05-10T04:56:28.957Z,4.0
2023-05-10T04:57:16.364Z,4.0
2023-05-10T04:58:03.810Z,4.0
2023-05-10T04:58:51.235Z,4.0
2023-05-10T04:59:38.656Z,4.0
2023-05-10T05:00:26.091Z,4.0
2023-05-10T05:01:13.564Z,4.0
2023-05-10T05:02:01.113Z,4.0
2023-05-10T05:02:48.647Z,4.0
2023-05-10T05:03:36.284Z,4.0
2023-05-10T05:04:23.862Z,4.0
2023-05-10T05:05:11.590Z,4.0
2023-05-10T05:05:59.095Z,4.0
2023-05-10T05:06:47.115Z,4.0
2023-05-10T05:07:34.567Z,4.0
2023-05-10T05:08:22.092Z,4.0
2023-05-10T05:09:10.157Z,4.0
2023-05-10T05:09:57.627Z,4.0
2023-05-10T05:10:45.184Z,4.0
2023-05-10T05:11:32.687Z,8.6
2023-05-10T05:12:20.119Z,8.6
2023-05-10T05:13:07.591Z,8.6
2023-05-10T05:13:55.456Z,8.6
2023-05-10T05:14:42.906Z,8.6
2023-05-10T05:15:30.358Z,8.6
2023-05-10T05:16:17.897Z,8.6
2023-05-10T05:17:05.371Z,8.6
2023-05-10T05:17:53.095Z,8.6
2023-05-10T05:18:40.575Z,8.6
2023-05-10T05:19:28.140Z,8.6
2023-05-10T05:20:15.749Z,8.6
2023-05-10T05:21:03.844Z,8.6
2023-05-10T05:21:51.251Z,8.6
2023-05-10T05:22:38.721Z,8.6
2023-05-10T05:23:26.137Z,8.6
2023-05-10T05:24:13.621Z,8.6
2023-05-10T05:25:01.068Z,8.6
2023-05-10T05:25:48.535Z,8.6
2023-05-10T05:26:35.977Z,8.6
2023-05-10T05:27:23.452Z,8.6
2023-05-10T05:28:11.536Z,8.6
2023-05-10T05:28:59.004Z,8.6
2023-05-10T05:29:46.452Z,8.6
2023-05-10T05:30:34.384Z,8.6
2023-05-10T05:31:21.870Z,8.6
2023-05-10T05:32:09.538Z,8.6
2023-05-10T05:32:57.120Z,8.6
2023-05-10T05:33:44.608Z,8.6
2023-05-10T05:34:32.492Z,8.6
2023-05-10T05:35:19.923Z,8.6
2023-05-10T05:36:07.378Z,8.6
2023-05-10T05:36:54.810Z,8.6
2023-05-10T05:37:42.260Z,8.6
2023-05-10T05:38:29.671Z,8.6
2023-05-10T05:39:17.118Z,8.6
2023-05-10T05:40:04.556Z,8.6
2023-05-10T05:40:51.977Z,8.6
2023-05-10T05:41:39.388Z,8.6
2023-05-10T05:42:26.808Z,8.6
2023-05-10T05:43:14.216Z,8.6
2023-05-10T05:44:01.692Z,8.6
2023-05-10T05:44:49.141Z,8.6
2023-05-10T05:45:36.612Z,8.6
2023-05-10T05:46:24.120Z,8.6
2023-05-10T05:47:11.579Z,8.6
2023-05-10T05:47:59.597Z,8.6
2023-05-10T05:48:47.231Z,8.6
2023-05-10T05:49:34.902Z,8.6
2023-05-10T05:50:22.312Z,8.6
2023-05-10T05:51:09.725Z,8.6
2023-05-10T05:51:57.142Z,8.6
2023-05-10T05:52:44.567Z,8.6
2023-05-10T05:53:32.481Z,8.6
2023-05-10T05:54:19.908Z,8.6
2023-05-10T05:55:07.356Z,8.6
2023-05-10T05:55:54.808Z,8.6
2023-05-10T05:56:42.426Z,8.6
2023-05-10T05:57:29.872Z,8.6
2023-05-10T05:58:17.365Z,8.6
2023-05-10T05:59:04.783Z,8.6
2023-05-10T05:59:52.192Z,8.6
2023-05-10T06:00:39.643Z,8.6
2023-05-10T06:01:27.114Z,8.6
2023-05-10T06:02:14.632Z,8.6
2023-05-10T06:03:02.163Z,8.6
2023-05-10T06:03:51.016Z,8.6
2023-05-10T06:04:41.595Z,8.6
2023-05-10T06:05:31.938Z,8.6
2023-05-10T06:06:19.394Z,8.6
2023-05-10T06:07:06.836Z,8.6
2023-05-10T06:07:54.476Z,8.6
2023-05-10T06:08:41.999Z,8.6
2023-05-10T06:09:29.615Z,8.6
2023-05-10T06:10:17.074Z,8.6
2023-05-10T06:11:04.529Z,17.5
2023-05-10T06:11:51.968Z,17.5
2023-05-10T06:12:39.421Z,17.5
2023-05-10T06:13:27.037Z,17.5
2023-05-10T06:14:14.584Z,17.5
2023-05-10T06:15:02.185Z,17.5
2023-05-10T06:15:49.622Z,17.5
2023-05-10T06:16:37.068Z,17.5
2023-05-10T06:17:24.523Z,17.5
2023-05-10T06:18:12.017Z,17.5
2023-05-10T06:18:59.465Z,17.5
2023-05-10T06:19:46.874Z,17.5
2023-05-10T06:20:34.314Z,17.5
2023-05-10T06:21:21.851Z,17.5
2023-05-10T06:22:09.314Z,17.5
2023-05-10T06:22:56.778Z,17.5
2023-05-10T06:23:44.192Z,17.5
2023-05-10T06:24:31.605Z,17.5
2023-05-10T06:25:19.295Z,17.5
2023-05-10T06:26:06.864Z,17.5
2023-05-10T06:26:54.303Z,17.5
2023-05-10T06:27:41.755Z,17.5
2023-05-10T06:28:29.664Z,17.5
2023-05-10T06:29:17.100Z,17.5
2023-05-10T06:30:12.260Z,17.5
2023-05-10T06:31:00.563Z,17.5
2023-05-10T06:31:48.084Z,17.5
2023-05-10T06:32:35.585Z,17.5
2023-05-10T06:33:23.032Z,17.5
2023-05-10T06:34:10.440Z,17.5
2023-05-10T06:34:57.847Z,17.5
2023-05-10T06:35:45.305Z,17.5
2023-05-10T06:36:32.786Z,17.5
2023-05-10T06:37:20.235Z,17.5
2023-05-10T06:38:07.702Z,17.5
2023-05-10T06:38:55.300Z,17.5
2023-05-10T06:39:43.244Z,17.5
2023-05-10T06:40:30.695Z,17.5
2023-05-10T06:41:18.112Z,17.5
2023-05-10T06:42:05.545Z,17.5
2023-05-10T06:42:53.562Z,17.5
2023-05-10T06:43:41.159Z,17.5
2023-05-10T06:44:28.567Z,17.5
2023-05-10T06:45:16.381Z,17.5
2023-05-10T06:46:04.116Z,17.5
2023-05-10T06:46:51.673Z,17.5
2023-05-10T06:47:39.632Z,17.5
2023-05-10T06:48:27.165Z,17.5
2023-05-10T06:49:14.968Z,17.5
2023-05-10T06:50:02.454Z,17.5
2023-05-10T06:50:49.959Z,17.5
2023-05-10T06:51:37.424Z,17.5
2023-05-10T06:52:24.864Z,17.5
2023-05-10T06:53:12.315Z,17.5
2023-05-10T06:53:59.930Z,17.5
2023-05-10T06:54:47.350Z,17.5
2023-05-10T06:55:35.233Z,17.5
2023-05-10T06:56:22.755Z,17.5
2023-05-10T06:57:23.321Z,17.5
2023-05-10T06:58:07.635Z,17.5
2023-05-10T06:58:55.108Z,17.5
2023-05-10T06:59:42.567Z,17.5
2023-05-10T07:00:30.043Z,17.5
2023-05-10T07:01:17.685Z,17.5
2023-05-10T07:02:05.463Z,17.5
2023-05-10T07:02:52.994Z,17.5
2023-05-10T07:03:40.508Z,17.5
2023-05-10T07:04:27.940Z,17.5
2023-05-10T07:05:16.038Z,17.5
2023-05-10T07:06:03.662Z,17.5
2023-05-10T07:06:51.069Z,17.5
2023-05-10T07:07:38.506Z,17.5
2023-05-10T07:08:25.916Z,17.5
2023-05-10T07:09:13.378Z,17.5
2023-05-10T07:10:00.808Z,17.5
2023-05-10T07:10:48.234Z,13.5
2023-05-10T07:11:35.709Z,13.5
2023-05-10T07:12:23.161Z,13.5
2023-05-10T07:13:10.681Z,13.5
2023-05-10T07:13:58.273Z,13.5
2023-05-10T07:14:46.176Z,13.5
2023-05-10T07:15:33.620Z,13.5
2023-05-10T07:16:21.277Z,13.5
2023-05-10T07:17:08.972Z,13.5
2023-05-10T07:17:56.980Z,13.5
2023-05-10T07:18:44.541Z,13.5
2023-05-10T07:19:32.010Z,13.5
2023-05-10T07:20:19.453Z,13.5
2023-05-10T07:21:06.951Z,13.5
2023-05-10T07:21:54.391Z,13.5
2023-05-10T07:22:41.866Z,13.5
2023-05-10T07:23:29.299Z,13.5
2023-05-10T07:24:16.730Z,13.5
2023-05-10T07:25:04.166Z,13.5
2023-05-10T07:25:51.595Z,13.5
2023-05-10T07:26:39.043Z,13.5
2023-05-10T07:27:26.487Z,13.5
2023-05-10T07:28:13.948Z,13.5
2023-05-10T07:29:01.381Z,13.5
2023-05-10T07:29:48.815Z,13.5
2023-05-10T07:30:36.318Z,13.5
2023-05-10T07:31:23.791Z,13.5
2023-05-10T07:32:11.284Z,13.5
2023-05-10T07:32:58.757Z,13.5
2023-05-10T07:33:46.226Z,13.5
2023-05-10T07:34:33.652Z,13.5
2023-05-10T07:35:21.092Z,13.5
2023-05-10T07:36:08.512Z,13.5
2023-05-10T07:36:55.960Z,13.5
2023-05-10T07:37:43.361Z,13.5
2023-05-10T07:38:30.760Z,13.5
2023-05-10T07:39:26.680Z,13.5
2023-05-10T07:40:15.334Z,13.5
2023-05-10T07:41:02.997Z,13.5
2023-05-10T07:41:50.408Z,13.5
2023-05-10T07:42:37.864Z,13.5
2023-05-10T07:43:25.281Z,13.5
2023-05-10T07:44:12.662Z,13.5
2023-05-10T07:45:00.211Z,13.5
2023-05-10T07:45:47.786Z,13.5
2023-05-10T07:46:35.509Z,13.5
2023-05-10T07:47:23.024Z,13.5
2023-05-10T07:48:10.485Z,13.5
2023-05-10T07:48:57.983Z,13.5
2023-05-10T07:49:45.457Z,13.5
2023-05-10T07:50:32.903Z,13.5
2023-05-10T07:51:20.416Z,13.5
2023-05-10T07:52:07.906Z,13.5
2023-05-10T07:52:55.352Z,13.5
2023-05-10T07:53:43.014Z,13.5
2023-05-10T07:54:30.684Z,13.5
2023-05-10T07:55:18.326Z,13.5
2023-05-10T07:56:05.973Z,13.5
2023-05-10T07:56:53.447Z,13.5
2023-05-10T07:57:40.890Z,13.5
2023-05-10T07:58:28.356Z,13.5
2023-05-10T07:59:15.787Z,13.5
2023-05-10T08:00:03.229Z,13.5
2023-05-10T08:00:50.684Z,13.5
2023-05-10T08:01:38.140Z,13.5
2023-05-10T08:02:25.700Z,13.5
2023-05-10T08:03:13.406Z,13.5
2023-05-10T08:04:01.173Z,13.5
2023-05-10T08:04:48.789Z,13.5
2023-05-10T08:05:36.217Z,13.5
2023-05-10T08:06:23.708Z,13.5
2023-05-10T08:07:11.159Z,13.5
2023-05-10T08:07:58.584Z,13.5
2023-05-10T08:08:46.014Z,13.5
2023-05-10T08:09:33.470Z,13.5
2023-05-10T08:10:21.009Z,13.5
2023-05-10T08:11:08.593Z,12.7
2023-05-10T08:11:56.090Z,12.7
2023-05-10T08:12:43.780Z,12.7
2023-05-10T08:13:31.243Z,12.7
2023-05-10T08:14:18.711Z,12.7
2023-05-10T08:15:06.233Z,12.7
2023-05-10T08:15:53.731Z,12.7
2023-05-10T08:16:41.239Z,12.7
2023-05-10T08:17:28.832Z,12.7
2023-05-10T08:18:16.607Z,12.7
2023-05-10T08:19:04.252Z,12.7
2023-05-10T08:19:51.884Z,12.7
2023-05-10T08:20:39.312Z,12.7
2023-05-10T08:21:26.763Z,12.7
2023-05-10T08:22:14.193Z,12.7
2023-05-10T08:23:01.645Z,12.7
2023-05-10T08:23:49.103Z,12.7
2023-05-10T08:24:36.523Z,12.7
2023-05-10T08:25:23.995Z,12.7
2023-05-10T08:26:11.432Z,12.7
2023-05-10T08:26:58.924Z,12.7
2023-05-10T08:27:46.375Z,12.7
2023-05-10T08:28:33.851Z,12.7
2023-05-10T08:29:21.292Z,12.7
2023-05-10T08:30:08.790Z,12.7
2023-05-10T08:30:56.283Z,12.7
2023-05-10T08:31:43.898Z,12.7
2023-05-10T08:32:31.464Z,12.7
2023-05-10T08:33:19.067Z,12.7
2023-05-10T08:34:07.036Z,12.7
2023-05-10T08:34:54.541Z,12.7
2023-05-10T08:35:42.493Z,12.7
2023-05-10T08:36:29.952Z,12.7
2023-05-10T08:37:17.547Z,12.7
2023-05-10T08:38:04.986Z,12.7
2023-05-10T08:38:52.537Z,12.7
2023-05-10T08:39:39.959Z,12.7
2023-05-10T08:40:27.401Z,12.7
2023-05-10T08:41:14.851Z,12.7
2023-05-10T08:42:02.307Z,12.7
2023-05-10T08:42:49.745Z,12.7
2023-05-10T08:43:37.283Z,12.7
2023-05-10T08:44:24.767Z,12.7
2023-05-10T08:45:12.190Z,12.7
2023-05-10T08:45:59.644Z,12.7
2023-05-10T08:46:47.543Z,12.7
2023-05-10T08:47:35.115Z,12.7
2023-05-10T08:48:22.579Z,12.7
2023-05-10T08:49:10.013Z,12.7
2023-05-10T08:49:57.465Z,12.7
2023-05-10T08:50:44.934Z,12.7
2023-05-10T08:51:32.480Z,12.7
2023-05-10T08:52:19.959Z,12.7
2023-05-10T08:53:07.423Z,12.7
2023-05-10T08:53:54.891Z,12.7
2023-05-10T08:54:42.373Z,12.7
2023-05-10T08:55:29.831Z,12.7
2023-05-10T08:56:17.279Z,12.7
2023-05-10T08:57:04.740Z,12.7
2023-05-10T08:57:52.328Z,12.7
2023-05-10T08:58:39.858Z,12.7
2023-05-10T08:59:27.316Z,12.7
2023-05-10T09:00:14.779Z,12.7
2023-05-10T09:01:02.613Z,12.7
2023-05-10T09:01:50.072Z,12.7
2023-05-10T09:02:37.806Z,12.7
2023-05-10T09:03:25.484Z,12.7
2023-05-10T09:04:13.025Z,12.7
2023-05-10T09:05:00.664Z,12.7
2023-05-10T09:05:48.218Z,12.7
2023-05-10T09:06:35.995Z,12.7
2023-05-10T09:07:23.490Z,12.7
2023-05-10T09:08:10.930Z,12.7
2023-05-10T09:08:58.374Z,12.7
2023-05-10T09:09:45.835Z,12.7
2023-05-10T09:10:33.288Z,12.7
2023-05-10T09:11:20.743Z,9.9
2023-05-10T09:12:08.196Z,9.9
2023-05-10T09:12:56.926Z,9.9
2023-05-10T09:13:46.149Z,9.9
2023-05-10T09:14:33.627Z,9.9
2023-05-10T09:15:21.403Z,9.9
2023-05-10T09:16:20.374Z,9.9
2023-05-10T09:17:06.298Z,9.9
2023-05-10T09:17:53.846Z,9.9
2023-05-10T09:18:41.423Z,9.9
2023-05-10T09:19:28.923Z,9.9
2023-05-10T09:20:16.353Z,9.9
2023-05-10T09:21:03.794Z,9.9
2023-05-10T09:21:51.249Z,9.9
2023-05-10T09:22:38.703Z,9.9
2023-05-10T09:23:26.177Z,9.9
2023-05-10T09:24:13.813Z,9.9
2023-05-10T09:25:01.743Z,9.9
2023-05-10T09:25:49.196Z,9.9
2023-05-10T09:26:36.667Z,9.9
2023-05-10T09:27:24.143Z,9.9
2023-05-10T09:28:11.590Z,9.9
2023-05-10T09:28:59.033Z,9.9
2023-05-10T09:29:46.519Z,9.9
2023-05-10T09:30:34.012Z,9.9
2023-05-10T09:31:21.802Z,9.9
2023-05-10T09:32:09.397Z,9.9
2023-05-10T09:32:56.853Z,9.9
2023-05-10T09:33:44.329Z,9.9
2023-05-10T09:34:31.761Z,9.9
2023-05-10T09:35:19.364Z,9.9
2023-05-10T09:36:07.074Z,9.9
2023-05-10T09:36:54.544Z,9.9
2023-05-10T09:37:41.997Z,9.9
2023-05-10T09:38:29.436Z,9.9
2023-05-10T09:39:16.880Z,9.9
2023-05-10T09:40:04.790Z,9.9
2023-05-10T09:40:52.244Z,9.9
2023-05-10T09:41:39.716Z,9.9
2023-05-10T09:42:27.420Z,9.9
2023-05-10T09:43:14.868Z,9.9
2023-05-10T09:44:02.430Z,9.9
2023-05-10T09:44:49.888Z,9.9
2023-05-10T09:45:38.916Z,9.9
2023-05-10T09:47:14.040Z,9.9
2023-05-10T09:48:01.677Z,9.9
2023-05-10T09:48:49.249Z,9.9
2023-05-10T09:49:36.690Z,9.9
2023-05-10T09:50:24.152Z,9.9
2023-05-10T09:51:11.580Z,9.9
2023-05-10T09:51:59.023Z,9.9
2023-05-10T09:52:46.476Z,9.9
2023-05-10T09:53:33.912Z,9.9
2023-05-10T09:54:21.495Z,9.9
2023-05-10T09:55:09.058Z,9.9
2023-05-10T09:55:56.497Z,9.9
2023-05-10T09:56:44.082Z,9.9
2023-05-10T09:57:32.865Z,9.9
2023-05-10T09:58:21.336Z,9.9
2023-05-10T09:59:08.794Z,9.9
2023-05-10T09:59:56.218Z,9.9
2023-05-10T10:00:43.744Z,9.9
2023-05-10T10:01:31.265Z,9.9
2023-05-10T10:02:19.078Z,9.9
2023-05-10T10:03:06.809Z,9.9
2023-05-10T10:03:54.374Z,9.9
2023-05-10T10:04:41.935Z,9.9
2023-05-10T10:05:30.148Z,9.9
2023-05-10T10:06:29.159Z,9.9
2023-05-10T10:07:15.026Z,9.9
2023-05-10T10:08:02.483Z,9.9
2023-05-10T10:08:49.932Z,9.9
2023-05-10T10:09:37.394Z,9.9
2023-05-10T10:10:24.833Z,9.9
2023-05-10T10:11:12.264Z,8.2
2023-05-10T10:11:59.730Z,8.2
2023-05-10T10:12:47.161Z,8.2
2023-05-10T10:13:34.617Z,8.2
2023-05-10T10:14:22.071Z,8.2
2023-05-10T10:15:09.978Z,8.2
2023-05-10T10:15:57.976Z,8.2
2023-05-10T10:16:55.671Z,8.2
2023-05-10T10:17:43.566Z,8.2
2023-05-10T10:18:31.099Z,8.2
2023-05-10T10:19:18.648Z,8.2
2023-05-10T10:20:06.105Z,8.2
2023-05-10T10:20:53.707Z,8.2
2023-05-10T10:21:41.380Z,8.2
2023-05-10T10:22:28.839Z,8.2
2023-05-10T10:23:17.708Z,8.2
2023-05-10T10:24:05.399Z,8.2
2023-05-10T10:24:53.024Z,8.2
2023-05-10T10:25:40.514Z,8.2
2023-05-10T10:26:27.938Z,8.2
2023-05-10T10:27:15.390Z,8.2
2023-05-10T10:28:02.830Z,8.2
2023-05-10T10:28:50.271Z,8.2
2023-05-10T10:29:37.714Z,8.2
2023-05-10T10:30:25.226Z,8.2
2023-05-10T10:31:12.709Z,8.2
2023-05-10T10:32:00.641Z,8.2
2023-05-10T10:32:48.135Z,8.2
2023-05-10T10:33:35.698Z,8.2
2023-05-10T10:34:23.160Z,8.2
2023-05-10T10:35:10.589Z,8.2
2023-05-10T10:35:58.028Z,8.2
2023-05-10T10:36:45.497Z,8.2
2023-05-10T10:37:32.931Z,8.2
2023-05-10T10:38:20.374Z,8.2
2023-05-10T10:39:07.830Z,8.2
2023-05-10T10:39:55.268Z,8.2
2023-05-10T10:40:42.696Z,8.2
2023-05-10T10:41:30.169Z,8.2
2023-05-10T10:42:17.874Z,8.2
2023-05-10T10:43:05.505Z,8.2
2023-05-10T10:43:52.957Z,8.2
2023-05-10T10:44:40.584Z,8.2
2023-05-10T10:45:28.502Z,8.2
2023-05-10T10:46:16.109Z,8.2
2023-05-10T10:47:03.956Z,8.2
2023-05-10T10:47:51.437Z,8.2
2023-05-10T10:48:38.897Z,8.2
2023-05-10T10:49:26.344Z,8.2
2023-05-10T10:50:13.868Z,8.2
2023-05-10T10:51:01.369Z,8.2
2023-05-10T10:51:48.826Z,8.2
2023-05-10T10:52:36.454Z,8.2
2023-05-10T10:53:23.937Z,8.2
2023-05-10T10:54:11.435Z,8.2
2023-05-10T10:54:59.056Z,8.2
2023-05-10T10:55:46.519Z,8.2
2023-05-10T10:56:36.451Z,8.2
2023-05-10T10:57:24.536Z,8.2
2023-05-10T10:58:11.960Z,8.2
2023-05-10T10:58:59.407Z,8.2
2023-05-10T10:59:47.381Z,8.2
2023-05-10T11:00:35.026Z,8.2
2023-05-10T11:01:22.528Z,8.2
2023-05-10T11:02:10.013Z,8.2
2023-05-10T11:02:57.480Z,8.2
2023-05-10T11:03:44.977Z,8.2
2023-05-10T11:04:32.486Z,8.2
2023-05-10T11:05:19.970Z,8.2
2023-05-10T11:06:07.441Z,8.2
2023-05-10T11:06:54.863Z,8.2
2023-05-10T11:07:42.298Z,8.2
2023-05-10T11:08:29.741Z,8.2
2023-05-10T11:09:17.163Z,8.2
2023-05-10T11:10:04.589Z,8.2
2023-05-10T11:10:52.042Z,6.5
2023-05-10T11:11:39.497Z,6.5
2023-05-10T11:12:27.140Z,6.5
2023-05-10T11:13:14.598Z,6.5
2023-05-10T11:14:02.029Z,6.5
2023-05-10T11:14:49.993Z,6.5
2023-05-10T11:15:37.456Z,6.5
2023-05-10T11:16:25.126Z,6.5
2023-05-10T11:17:13.051Z,6.5
2023-05-10T11:18:00.531Z,6.5
2023-05-10T11:18:50.245Z,6.5
2023-05-10T11:19:38.099Z,6.5
2023-05-10T11:20:25.572Z,6.5
2023-05-10T11:21:13.638Z,6.5
2023-05-10T11:22:01.605Z,6.5
2023-05-10T11:22:49.140Z,6.5
2023-05-10T11:23:36.977Z,6.5
2023-05-10T11:24:25.098Z,6.5
2023-05-10T11:25:12.536Z,6.5
2023-05-10T11:25:59.995Z,6.5
2023-05-10T11:26:47.459Z,6.5
2023-05-10T11:27:35.121Z,6.5
2023-05-10T11:28:22.571Z,6.5
2023-05-10T11:29:10.048Z,6.5
2023-05-10T11:29:57.470Z,6.5
2023-05-10T11:30:45.992Z,6.5
2023-05-10T11:31:33.473Z,6.5
2023-05-10T11:32:21.423Z,6.5
2023-05-10T11:33:08.966Z,6.5
2023-05-10T11:33:57.104Z,6.5
2023-05-10T11:34:44.568Z,6.5
2023-05-10T11:35:32.001Z,6.5
2023-05-10T11:36:19.648Z,6.5
2023-05-10T11:37:07.671Z,6.5
2023-05-10T11:37:55.238Z,6.5
2023-05-10T11:38:42.735Z,6.5
2023-05-10T11:39:30.148Z,6.5
2023-05-10T11:40:17.769Z,6.5
2023-05-10T11:41:06.038Z,6.5
2023-05-10T11:41:53.689Z,6.5
2023-05-10T11:42:41.442Z,6.5
2023-05-10T11:43:30.747Z,6.5
2023-05-10T11:44:18.172Z,6.5
2023-05-10T11:45:05.612Z,6.5
2023-05-10T11:45:53.040Z,6.5
2023-05-10T11:46:40.573Z,6.5
2023-05-10T11:47:29.212Z,6.5
2023-05-10T11:48:18.308Z,6.5
2023-05-10T11:49:05.892Z,6.5
2023-05-10T11:49:53.462Z,6.5
2023-05-10T11:50:41.047Z,6.5
2023-05-10T11:51:28.477Z,6.5
2023-05-10T11:52:16.043Z,6.5
2023-05-10T11:53:03.481Z,6.5
2023-05-10T11:53:50.906Z,6.5
2023-05-10T11:54:38.370Z,6.5
2023-05-10T11:55:25.856Z,6.5
2023-05-10T11:56:13.323Z,6.5
2023-05-10T11:57:00.804Z,6.5
2023-05-10T11:57:48.216Z,6.5
2023-05-10T11:58:35.659Z,6.5
2023-05-10T11:59:23.312Z,6.5
2023-05-10T12:00:10.770Z,6.5
2023-05-10T12:00:58.425Z,6.5
2023-05-10T12:01:45.851Z,6.5
2023-05-10T12:02:33.407Z,6.5
2023-05-10T12:03:21.150Z,6.5
2023-05-10T12:04:08.923Z,6.5
2023-05-10T12:04:56.693Z,6.5
2023-05-10T12:05:44.134Z,6.5
2023-05-10T12:06:31.687Z,6.5
2023-05-10T12:07:19.166Z,6.5
2023-05-10T12:08:06.581Z,6.5
2023-05-10T12:08:54.017Z,6.5
2023-05-10T12:09:44.073Z,6.5
2023-05-10T12:10:31.935Z,6.5
2023-05-10T12:11:19.389Z,5.5
2023-05-10T12:12:06.823Z,5.5
2023-05-10T12:12:54.269Z,5.5
2023-05-10T12:13:41.720Z,5.5
2023-05-10T12:14:29.125Z,5.5
2023-05-10T12:15:16.552Z,5.5
2023-05-10T12:16:04.053Z,5.5
2023-05-10T12:16:51.937Z,5.5
2023-05-10T12:17:41.258Z,5.5
2023-05-10T12:18:30.202Z,5.5
2023-05-10T12:19:17.691Z,5.5
2023-05-10T12:20:05.180Z,5.5
2023-05-10T12:20:52.748Z,5.5
2023-05-10T12:21:40.266Z,5.5
2023-05-10T12:22:28.039Z,5.5
2023-05-10T12:23:15.497Z,5.5
2023-05-10T12:24:02.922Z,5.5
2023-05-10T12:24:50.377Z,5.5
2023-05-10T12:25:37.837Z,5.5
2023-05-10T12:26:25.278Z,5.5
2023-05-10T12:28:08.751Z,5.5
2023-05-10T12:28:56.472Z,5.5
2023-05-10T12:29:44.205Z,5.5
2023-05-10T12:30:32.125Z,5.5
2023-05-10T12:31:19.646Z,5.5
2023-05-10T12:32:07.154Z,5.5
2023-05-10T12:32:54.698Z,5.5
2023-05-10T12:33:42.405Z,5.5
2023-05-10T12:34:29.836Z,5.5
2023-05-10T12:35:17.542Z,5.5
2023-05-10T12:36:04.962Z,5.5
2023-05-10T12:36:52.417Z,5.5
2023-05-10T12:37:39.944Z,5.5
2023-05-10T12:38:27.452Z,5.5
2023-05-10T12:39:15.415Z,5.5
2023-05-10T12:40:02.875Z,5.5
2023-05-10T12:40:50.348Z,5.5
2023-05-10T12:41:37.800Z,5.5
2023-05-10T12:42:25.202Z,5.5
2023-05-10T12:43:12.898Z,5.5
2023-05-10T12:44:00.545Z,5.5
2023-05-10T12:44:47.975Z,5.5
2023-05-10T12:45:35.389Z,5.5
2023-05-10T12:46:22.933Z,5.5
2023-05-10T12:47:10.420Z,5.5
2023-05-10T12:47:57.925Z,5.5
2023-05-10T12:48:45.400Z,5.5
2023-05-10T12:49:32.843Z,5.5
2023-05-10T12:50:20.252Z,5.5
2023-05-10T12:51:07.669Z,5.5
2023-05-10T12:51:55.438Z,5.5
2023-05-10T12:53:46.093Z,5.5
2023-05-10T12:54:34.764Z,5.5
2023-05-10T12:55:22.415Z,5.5
2023-05-10T12:56:09.868Z,5.5
2023-05-10T12:56:57.285Z,5.5
2023-05-10T12:57:44.714Z,5.5
2023-05-10T12:58:36.099Z,5.5
2023-05-10T12:59:23.848Z,5.5
2023-05-10T13:00:11.380Z,5.5
2023-05-10T13:00:59.080Z,5.5
2023-05-10T13:01:46.569Z,5.5
2023-05-10T13:02:34.148Z,5.5
2023-05-10T13:03:21.596Z,5.5
2023-05-10T13:04:09.070Z,5.5
2023-05-10T13:04:56.777Z,5.5
2023-05-10T13:05:44.179Z,5.5
2023-05-10T13:06:31.668Z,5.5
2023-05-10T13:07:19.056Z,5.5
2023-05-10T13:08:06.491Z,5.5
2023-05-10T13:08:53.890Z,5.5
2023-05-10T13:09:41.357Z,5.5
2023-05-10T13:10:28.758Z,5.5
2023-05-10T13:11:16.141Z,5.0
2023-05-10T13:12:03.567Z,5.0
2023-05-10T13:12:50.961Z,5.0
2023-05-10T13:13:38.346Z,5.0
2023-05-10T13:14:25.718Z,5.0
2023-05-10T13:15:13.120Z,5.0
2023-05-10T13:16:00.539Z,5.0
2023-05-10T13:16:47.974Z,5.0
2023-05-10T13:17:35.559Z,5.0
2023-05-10T13:18:23.543Z,5.0
2023-05-10T13:19:11.347Z,5.0
2023-05-10T13:19:58.779Z,5.0
2023-05-10T13:20:46.221Z,5.0
2023-05-10T13:21:33.635Z,5.0
2023-05-10T13:22:32.487Z,5.0
2023-05-10T13:23:18.414Z,5.0
2023-05-10T13:24:05.872Z,5.0
2023-05-10T13:24:53.375Z,5.0
2023-05-10T13:25:40.870Z,5.0
2023-05-10T13:26:28.285Z,5.0
2023-05-10T13:27:15.719Z,5.0
2023-05-10T13:28:03.151Z,5.0
2023-05-10T13:28:50.625Z,5.0
2023-05-10T13:29:38.087Z,5.0
2023-05-10T13:30:25.496Z,5.0
2023-05-10T13:31:13.043Z,5.0
2023-05-10T13:32:00.501Z,5.0
2023-05-10T13:32:47.953Z,5.0
2023-05-10T13:33:35.373Z,5.0
2023-05-10T13:34:22.767Z,5.0
2023-05-10T13:35:10.187Z,5.0
2023-05-10T13:35:57.630Z,5.0
2023-05-10T13:36:45.064Z,5.0
2023-05-10T13:37:32.459Z,5.0
2023-05-10T13:38:22.224Z,5.0
2023-05-10T13:39:09.897Z,5.0
2023-05-10T13:39:57.312Z,5.0
2023-05-10T13:40:44.751Z,5.0
2023-05-10T13:41:34.410Z,5.0
2023-05-10T13:42:21.840Z,5.0
2023-05-10T13:43:09.251Z,5.0
2023-05-10T13:43:56.660Z,5.0
2023-05-10T13:44:44.113Z,5.0
2023-05-10T13:45:31.540Z,5.0
2023-05-10T13:46:19.000Z,5.0
2023-05-10T13:47:06.479Z,5.0
2023-05-10T13:47:53.922Z,5.0
2023-05-10T13:48:41.385Z,5.0
2023-05-10T13:49:28.855Z,5.0
2023-05-10T13:50:16.258Z,5.0
2023-05-10T13:51:03.662Z,5.0
2023-05-10T13:51:51.069Z,5.0
2023-05-10T13:52:38.473Z,5.0
2023-05-10T13:53:25.899Z,5.0
2023-05-10T13:54:13.762Z,5.0
2023-05-10T13:55:01.248Z,5.0
2023-05-10T13:55:48.651Z,5.0
2023-05-10T13:56:36.081Z,5.0
2023-05-10T13:57:23.506Z,5.0
2023-05-10T13:58:10.901Z,5.0
2023-05-10T13:58:58.301Z,5.0
2023-05-10T13:59:45.698Z,5.0
2023-05-10T14:00:33.137Z,5.0
2023-05-10T14:01:20.614Z,5.0
2023-05-10T14:02:08.172Z,5.0
2023-05-10T14:02:55.788Z,5.0
2023-05-10T14:03:43.547Z,5.0
2023-05-10T14:04:30.998Z,5.0
2023-05-10T14:05:19.304Z,5.0
2023-05-10T14:06:09.728Z,5.0
2023-05-10T14:06:57.118Z,5.0
2023-05-10T14:07:44.544Z,5.0
2023-05-10T14:08:31.945Z,5.0
2023-05-10T14:09:19.365Z,5.0
2023-05-10T14:10:06.827Z,5.0
2023-05-10T14:10:54.249Z,8.7
2023-05-10T14:11:41.793Z,8.7
2023-05-10T14:12:29.197Z,8.7
2023-05-10T14:13:16.632Z,8.7
2023-05-10T14:14:04.066Z,8.7
2023-05-10T14:14:51.521Z,8.7
2023-05-10T14:15:38.981Z,8.7
2023-05-10T14:16:26.506Z,8.7
2023-05-10T14:17:13.945Z,8.7
2023-05-10T14:18:01.632Z,8.7
2023-05-10T14:18:49.092Z,8.7
2023-05-10T14:19:36.823Z,8.7
2023-05-10T14:20:24.231Z,8.7
2023-05-10T14:21:11.647Z,8.7
2023-05-10T14:21:59.086Z,8.7
2023-05-10T14:22:46.549Z,8.7
2023-05-10T14:23:34.024Z,8.7
2023-05-10T14:24:21.517Z,8.7
2023-05-10T14:25:08.918Z,8.7
2023-05-10T14:25:56.322Z,8.7
2023-05-10T14:26:43.913Z,8.7
2023-05-10T14:27:31.380Z,8.7
2023-05-10T14:28:19.057Z,8.7
2023-05-10T14:29:06.496Z,8.7
2023-05-10T14:29:53.989Z,8.7
2023-05-10T14:30:41.384Z,8.7
2023-05-10T14:31:29.376Z,8.7
2023-05-10T14:32:16.856Z,8.7
2023-05-10T14:33:04.406Z,8.7
2023-05-10T14:33:51.862Z,8.7
2023-05-10T14:34:39.296Z,8.7
2023-05-10T14:35:26.709Z,8.7
2023-05-10T14:36:14.493Z,8.7
2023-05-10T14:37:01.972Z,8.7
2023-05-10T14:37:49.475Z,8.7
2023-05-10T14:38:36.878Z,8.7
2023-05-10T14:39:24.435Z,8.7
2023-05-10T14:40:11.859Z,8.7